Time;durP1;ratioP1;P1;durP2;ratioP2;P2;SDS_P1;SDS_P2;PMS_P1;PMS_P2;Temp;Humidity;BMP_temperature;BMP_pressure;BME280_temperature;BME280_humidity;BME280_pressure;Samples;Min_cycle;Max_cycle;Signal;HPM_P1;HPM_P2
2022/01/20 03:30:38;;;;;;;;;;;;;;;;;;;;;
2022/01/20 03:40:06;;;;;;;26.33;4.15;;;4.80;99.90;;;;;;5743189;25;20138;-91
2022/01/20 06:58:32;;;;;;;11.30;3.80;;;3.90;99.90;;;;;;6304213;22;20036;-90
2022/01/20 07:00:58;;;;;;;13.00;3.70;;;4.40;99.90;;;;;;6308923;22;20010;-88
2022/01/20 07:03:23;;;;;;;13.38;3.40;;;3.90;99.90;;;;;;6308986;22;20003;-91
2022/01/20 07:05:49;;;;;;;15.98;4.10;;;3.90;99.90;;;;;;6308905;22;20009;-86
2022/01/20 07:08:15;;;;;;;14.52;3.40;;;4.00;99.90;;;;;;6308903;22;20018;-89
2022/01/20 07:10:40;;;;;;;16.13;3.92;;;4.40;99.90;;;;;;6309216;22;20090;-89
2022/01/20 07:13:06;;;;;;;21.35;3.97;;;3.70;99.90;;;;;;6308897;22;20003;-90
2022/01/20 07:15:32;;;;;;;14.80;3.50;;;4.20;99.90;;;;;;6310464;22;20003;-94
2022/01/20 07:17:57;;;;;;;11.73;3.78;;;3.70;99.90;;;;;;6309780;22;20010;-90
2022/01/20 07:20:23;;;;;;;17.30;4.60;;;3.70;99.90;;;;;;6308773;22;20454;-91
2022/01/20 07:22:49;;;;;;;18.63;4.25;;;3.70;99.90;;;;;;6309102;22;20002;-90
2022/01/20 07:25:14;;;;;;;11.77;3.65;;;3.90;99.90;;;;;;6308940;22;20334;-90
2022/01/20 07:27:40;;;;;;;12.40;4.10;;;3.60;99.90;;;;;;6308513;22;20002;-88
2022/01/20 07:30:06;;;;;;;9.15;3.15;;;3.60;99.90;;;;;;6308488;22;20003;-89
2022/01/20 07:32:32;;;;;;;10.43;3.38;;;3.60;99.90;;;;;;6309210;22;20010;-89
2022/01/20 07:34:58;;;;;;;14.85;3.90;;;3.60;99.90;;;;;;6308191;22;20014;-89
2022/01/20 07:37:23;;;;;;;12.93;4.75;;;3.60;99.90;;;;;;6308276;22;20006;-86
2022/01/20 07:39:49;;;;;;;24.40;5.10;;;3.60;99.90;;;;;;6308828;22;20034;-88
2022/01/20 07:42:15;;;;;;;11.35;4.70;;;3.90;99.90;;;;;;6308654;22;20355;-91
2022/01/20 07:44:41;;;;;;;16.60;6.45;;;3.70;99.90;;;;;;6308334;22;20011;-90
2022/01/20 07:47:06;;;;;;;17.73;7.03;;;3.50;99.90;;;;;;6308127;22;20041;-89
2022/01/20 07:49:32;;;;;;;19.20;8.40;;;3.60;99.90;;;;;;6309056;22;20002;-89
2022/01/20 07:51:58;;;;;;;17.00;7.15;;;3.50;99.90;;;;;;6307763;22;20003;-89
2022/01/20 07:54:23;;;;;;;15.98;7.32;;;3.50;99.90;;;;;;6308412;22;20076;-90
2022/01/20 07:56:49;;;;;;;18.55;6.53;;;3.50;99.90;;;;;;6308518;22;20006;-88
2022/01/20 07:59:16;;;;;;;16.67;5.25;;;3.60;99.90;;;;;;6308360;22;20484;-90
2022/01/20 08:01:41;;;;;;;11.95;5.75;;;3.40;99.90;;;;;;6308224;22;20003;-88
2022/01/20 08:04:07;;;;;;;16.00;5.90;;;3.40;99.90;;;;;;6308226;22;20211;-88
2022/01/20 08:06:33;;;;;;;18.70;5.97;;;3.50;99.90;;;;;;6308972;22;20321;-89
2022/01/20 08:08:59;;;;;;;11.70;5.18;;;3.50;99.90;;;;;;6308382;22;20010;-91
2022/01/20 08:11:25;;;;;;;26.02;6.82;;;3.40;99.90;;;;;;6335810;22;19994;-89
2022/01/20 08:13:51;;;;;;;19.25;6.32;;;3.80;99.90;;;;;;6308009;22;20010;-89
2022/01/20 08:16:17;;;;;;;15.82;5.53;;;3.40;99.90;;;;;;6308115;22;20003;-89
2022/01/20 08:18:42;;;;;;;14.07;6.22;;;3.50;99.90;;;;;;6308359;22;20443;-90
2022/01/20 08:21:08;;;;;;;12.55;4.78;;;3.90;99.90;;;;;;6335631;22;20339;-89
2022/01/20 08:23:34;;;;;;;14.43;5.15;;;3.60;99.90;;;;;;6309123;22;20002;-90
2022/01/20 08:25:59;;;;;;;18.02;3.88;;;3.60;99.90;;;;;;6308298;22;20003;-89
2022/01/20 08:28:25;;;;;;;12.05;3.63;;;3.60;99.90;;;;;;6308871;22;20324;-91
2022/01/20 08:30:52;;;;;;;9.80;3.67;;;3.60;99.90;;;;;;6308219;22;19998;-91
2022/01/20 08:33:17;;;;;;;14.73;4.63;;;3.80;99.90;;;;;;6308148;22;20006;-89
2022/01/20 08:35:44;;;;;;;19.13;4.30;;;3.70;99.90;;;;;;6308050;22;20003;-90
2022/01/20 08:38:10;;;;;;;9.20;3.45;;;3.70;99.90;;;;;;6308353;22;20010;-91
2022/01/20 08:40:36;;;;;;;18.30;4.22;;;3.70;99.90;;;;;;6309077;22;20347;-91
2022/01/20 08:43:02;;;;;;;16.35;3.80;;;3.70;99.90;;;;;;6308464;22;20002;-90
2022/01/20 08:45:31;;;;;;;10.43;3.25;;;3.80;99.90;;;;;;6308235;22;20033;-89
2022/01/20 08:47:58;;;;;;;25.65;4.05;;;3.90;99.90;;;;;;6310409;22;20011;-88
2022/01/20 08:50:26;;;;;;;9.73;3.55;;;3.90;99.90;;;;;;6315476;22;20002;-90
2022/01/20 08:52:53;;;;;;;19.30;5.30;;;4.00;99.90;;;;;;6313298;22;20010;-89
2022/01/20 08:55:19;;;;;;;13.40;3.85;;;4.00;99.90;;;;;;6308881;22;20003;-90
2022/01/20 08:57:45;;;;;;;11.57;4.03;;;4.00;99.90;;;;;;6307988;22;20002;-90
2022/01/20 09:00:13;;;;;;;15.70;4.00;;;4.10;99.90;;;;;;6308123;22;20152;-89
2022/01/20 09:02:38;;;;;;;17.70;5.00;;;4.20;99.90;;;;;;6308528;22;20011;-89
2022/01/20 09:05:05;;;;;;;23.33;8.52;;;4.20;99.90;;;;;;6337261;22;20334;-92
2022/01/20 09:07:31;;;;;;;19.88;7.00;;;4.20;99.90;;;;;;6311060;22;20010;-89
2022/01/20 09:10:00;;;;;;;13.02;4.85;;;4.30;99.90;;;;;;6308105;22;20416;-89
2022/01/20 09:17:47;;;;;;;13.85;4.50;;;4.40;99.90;;;;;;6335164;22;20014;-90
2022/01/20 09:20:13;;;;;;;17.88;4.72;;;4.40;99.90;;;;;;6308156;22;20087;-90
2022/01/20 09:22:39;;;;;;;15.20;5.10;;;4.50;99.90;;;;;;6308775;22;19999;-89
2022/01/20 09:25:07;;;;;;;15.73;4.72;;;4.60;99.90;;;;;;6307817;22;20014;-92
2022/01/20 09:27:33;;;;;;;16.57;3.73;;;4.60;99.90;;;;;;6307812;22;20022;-88
2022/01/20 09:30:01;;;;;;;17.85;4.47;;;4.70;99.90;;;;;;6334831;22;20026;-91
2022/01/20 09:32:28;;;;;;;13.77;5.07;;;4.80;99.90;;;;;;6307872;22;20446;-89
2022/01/20 09:34:56;;;;;;;14.98;4.13;;;4.90;99.90;;;;;;6307653;22;19999;-90
2022/01/20 09:37:24;;;;;;;12.93;4.03;;;4.90;99.90;;;;;;6307985;22;20007;-90
2022/01/20 09:39:50;;;;;;;19.35;4.95;;;5.00;99.90;;;;;;6307696;22;20007;-90
2022/01/20 09:42:16;;;;;;;18.45;4.53;;;5.10;99.90;;;;;;6307718;22;20309;-88
2022/01/20 09:44:47;;;;;;;19.38;4.60;;;5.20;99.90;;;;;;6308911;22;20384;-90
2022/01/20 09:47:16;;;;;;;25.10;5.07;;;5.20;99.90;;;;;;6307935;22;20007;-90
2022/01/20 09:49:43;;;;;;;14.35;4.20;;;5.30;99.90;;;;;;6308541;22;20034;-89
2022/01/20 09:52:09;;;;;;;22.25;5.05;;;5.40;99.90;;;;;;6308862;22;20056;-91
2022/01/20 09:54:35;;;;;;;24.80;5.10;;;5.50;99.90;;;;;;6307608;22;20006;-89
2022/01/20 09:57:01;;;;;;;15.00;4.72;;;5.60;99.90;;;;;;6308057;22;20003;-90
2022/01/20 09:59:27;;;;;;;22.08;5.68;;;5.60;99.90;;;;;;6307806;22;20044;-89
2022/01/20 10:01:57;;;;;;;28.70;5.25;;;5.70;99.90;;;;;;6308064;22;20002;-91
2022/01/20 10:04:29;;;;;;;14.93;4.80;;;5.70;99.90;;;;;;6308122;22;20003;-92
2022/01/20 10:06:58;;;;;;;12.25;5.63;;;5.80;99.90;;;;;;6307918;22;20003;-89
2022/01/20 10:09:34;;;;;;;26.48;6.03;;;5.80;99.90;;;;;;6308065;22;20010;-90
2022/01/20 10:12:00;;;;;;;21.48;6.35;;;5.90;99.90;;;;;;6308501;22;19999;-90
2022/01/20 10:14:25;;;;;;;18.13;5.80;;;5.90;99.90;;;;;;6336597;22;19999;-90
2022/01/20 10:16:52;;;;;;;20.00;4.72;;;5.90;99.90;;;;;;6311287;22;20002;-90
2022/01/20 10:19:26;;;;;;;18.92;4.50;;;5.90;99.90;;;;;;6310491;22;20003;-89
2022/01/20 10:21:53;;;;;;;19.20;4.15;;;6.00;99.90;;;;;;6310223;22;20436;-89
2022/01/20 10:24:19;;;;;;;20.05;5.40;;;6.10;99.90;;;;;;6337168;22;20025;-90
2022/01/20 10:26:50;;;;;;;15.02;4.28;;;6.10;99.90;;;;;;6310793;22;20002;-90
2022/01/20 10:29:16;;;;;;;17.27;4.72;;;6.10;99.90;;;;;;6310677;22;20351;-90
2022/01/20 10:31:42;;;;;;;18.80;4.55;;;6.20;99.90;;;;;;6311418;22;20499;-93
2022/01/20 10:34:30;;;;;;;15.63;5.00;;;6.20;99.90;;;;;;6309563;22;20011;-90
2022/01/20 10:37:03;;;;;;;22.20;5.18;;;6.30;99.90;;;;;;6309393;22;20435;-91
2022/01/20 10:39:39;;;;;;;18.00;4.82;;;6.30;99.90;;;;;;6309669;22;20430;-90
2022/01/20 10:42:09;;;;;;;15.95;4.32;;;6.40;99.90;;;;;;6309198;22;20006;-91
2022/01/20 10:44:44;;;;;;;17.50;4.35;;;6.40;99.90;;;;;;6311285;22;20287;-90
2022/01/20 10:47:19;;;;;;;22.42;5.13;;;6.40;99.90;;;;;;6310103;22;20057;-89
2022/01/20 10:49:46;;;;;;;14.15;5.55;;;6.50;99.90;;;;;;6310087;22;20007;-89
2022/01/20 10:52:14;;;;;;;21.15;5.13;;;6.60;99.90;;;;;;6311772;22;20339;-91
2022/01/20 10:54:46;;;;;;;19.85;5.32;;;6.50;99.90;;;;;;6310672;22;20003;-90
2022/01/20 10:57:15;;;;;;;26.60;5.47;;;6.50;99.90;;;;;;6310662;22;20093;-90
2022/01/20 10:59:53;;;;;;;18.88;5.00;;;6.50;99.90;;;;;;6311852;22;20010;-91
2022/01/20 11:02:21;;;;;;;20.38;4.95;;;6.60;99.90;;;;;;6309932;22;20098;-89
2022/01/20 11:04:51;;;;;;;18.65;4.40;;;6.70;99.90;;;;;;6310852;22;20003;-93
2022/01/20 11:07:17;;;;;;;14.85;3.92;;;6.80;99.90;;;;;;6310129;22;20351;-90
2022/01/20 11:09:45;;;;;;;14.45;4.15;;;6.80;99.90;;;;;;6310518;22;20451;-90
2022/01/20 11:12:13;;;;;;;16.70;4.43;;;6.80;99.90;;;;;;6310087;22;19999;-90
2022/01/20 11:14:43;;;;;;;12.85;3.80;;;6.80;99.90;;;;;;6310300;22;20007;-92
2022/01/20 11:17:21;;;;;;;15.23;4.18;;;6.80;99.90;;;;;;6309777;22;20010;-91
2022/01/20 11:19:49;;;;;;;36.00;4.45;;;6.80;99.90;;;;;;6310047;22;20075;-90
2022/01/20 11:22:15;;;;;;;19.00;4.20;;;7.00;99.90;;;;;;6310269;22;20006;-91
2022/01/20 11:24:43;;;;;;;26.55;4.05;;;7.00;99.90;;;;;;6312624;22;20500;-90
2022/01/20 11:27:12;;;;;;;13.53;3.50;;;7.00;99.90;;;;;;6309044;22;20060;-90
2022/01/20 11:29:40;;;;;;;;;;;7.00;99.90;;;;;;6309514;22;20264;-92
2022/01/20 11:32:20;;;;;;;20.80;4.18;;;7.10;99.90;;;;;;6309304;22;19899;-89
2022/01/20 11:35:03;;;;;;;18.42;4.13;;;7.00;99.90;;;;;;6310484;22;19999;-89
2022/01/20 11:37:34;;;;;;;23.67;4.32;;;7.10;99.90;;;;;;6309248;22;20007;-91
2022/01/20 11:40:08;;;;;;;16.88;3.72;;;7.10;99.90;;;;;;6310217;22;20462;-91
2022/01/20 11:42:34;;;;;;;20.55;3.75;;;7.10;99.90;;;;;;6309879;22;20324;-89
2022/01/20 11:45:00;;;;;;;19.30;4.20;;;7.20;99.90;;;;;;6308822;22;20009;-90
2022/01/20 11:47:33;;;;;;;15.05;3.60;;;7.20;99.90;;;;;;6309489;22;20030;-93
2022/01/20 11:49:59;;;;;;;22.33;4.32;;;7.40;99.90;;;;;;6309141;22;20018;-90
2022/01/20 11:52:27;;;;;;;13.15;3.60;;;7.40;99.90;;;;;;6309082;22;19999;-90
2022/01/20 11:54:54;;;;;;;15.65;3.90;;;7.40;99.90;;;;;;6310102;22;20006;-91
2022/01/20 11:57:28;;;;;;;21.73;3.63;;;7.40;99.90;;;;;;6309893;22;20090;-91
2022/01/20 11:59:57;;;;;;;28.52;4.03;;;7.30;99.90;;;;;;6309339;22;20007;-91
2022/01/20 12:02:38;;;;;;;20.70;3.88;;;7.30;99.90;;;;;;6309455;22;20002;-90
2022/01/20 12:05:26;;;;;;;17.33;3.67;;;7.30;99.90;;;;;;6310294;22;19999;-90
2022/01/20 12:08:10;;;;;;;15.13;3.92;;;7.30;99.90;;;;;;6308811;22;20011;-92
2022/01/20 12:10:38;;;;;;;22.33;3.85;;;7.20;99.90;;;;;;6309750;22;20010;-91
2022/01/20 12:13:06;;;;;;;18.02;3.63;;;7.30;99.90;;;;;;6308967;22;20003;-91
2022/01/20 12:15:32;;;;;;;25.17;3.92;;;7.30;99.90;;;;;;6308671;22;19999;-90
2022/01/20 12:17:58;;;;;;;14.13;3.60;;;7.30;99.90;;;;;;6309271;22;20346;-91
2022/01/20 12:20:25;;;;;;;16.55;3.90;;;7.20;99.90;;;;;;6308748;22;20048;-90
2022/01/20 12:22:53;;;;;;;23.17;4.10;;;7.30;99.90;;;;;;6309108;22;20030;-89
2022/01/20 12:25:28;;;;;;;15.87;3.50;;;7.40;99.90;;;;;;6310236;22;20007;-91
2022/01/20 12:28:02;;;;;;;17.40;4.00;;;7.50;99.80;;;;;;6308467;22;20003;-90
2022/01/20 12:30:29;;;;;;;10.85;3.92;;;7.50;99.00;;;;;;6309000;22;20006;-91
2022/01/20 12:33:02;;;;;;;18.25;4.35;;;7.40;99.90;;;;;;6309324;22;20003;-91
2022/01/20 12:35:41;;;;;;;25.77;4.30;;;7.30;99.70;;;;;;6309860;22;20007;-93
2022/01/20 12:38:31;;;;;;;16.45;4.45;;;7.30;99.90;;;;;;6309172;22;20443;-91
2022/01/20 12:41:03;;;;;;;15.77;3.72;;;7.30;99.90;;;;;;6312891;22;20374;-90
2022/01/20 12:43:58;;;;;;;13.20;3.42;;;7.40;99.90;;;;;;6308259;22;20007;-90
2022/01/20 12:46:27;;;;;;;16.02;4.03;;;7.40;99.90;;;;;;6309605;22;20388;-90
2022/01/20 12:48:58;;;;;;;15.30;4.35;;;7.40;99.90;;;;;;6309218;22;20064;-91
2022/01/20 12:51:42;;;;;;;17.13;4.20;;;7.40;99.90;;;;;;6309245;22;20009;-90
2022/01/20 12:54:17;;;;;;;17.08;3.50;;;7.40;99.90;;;;;;6309095;22;20009;-90
2022/01/20 12:56:46;;;;;;;11.95;3.60;;;7.30;99.90;;;;;;6312495;22;20159;-90
2022/01/20 12:59:20;;;;;;;11.35;3.58;;;7.30;99.90;;;;;;6310259;22;20030;-90
2022/01/20 13:01:48;;;;;;;18.80;4.18;;;7.30;99.90;;;;;;6310369;22;20003;-90
2022/01/20 13:04:17;;;;;;;19.13;4.50;;;7.30;99.70;;;;;;6313864;22;20034;-90
2022/01/20 13:06:56;;;;;;;16.45;3.85;;;7.40;98.50;;;;;;6309638;22;20713;-89
2022/01/20 13:09:24;;;;;;;14.48;3.47;;;7.50;98.50;;;;;;6309447;22;20039;-91
2022/01/20 13:11:57;;;;;;;9.93;3.50;;;7.50;98.30;;;;;;6309417;22;20006;-90
2022/01/20 13:14:43;;;;;;;12.60;3.60;;;7.60;98.70;;;;;;6308946;22;20355;-92
2022/01/20 13:17:24;;;;;;;9.60;3.00;;;7.60;97.50;;;;;;6308618;22;20018;-90
2022/01/20 13:19:54;;;;;;;12.00;3.58;;;7.60;96.60;;;;;;6311428;22;20015;-91
2022/01/20 13:22:29;;;;;;;18.80;3.83;;;7.60;96.50;;;;;;6310497;22;20029;-92
2022/01/20 13:25:13;;;;;;;18.50;3.30;;;7.50;97.50;;;;;;6308711;22;20334;-91
2022/01/20 13:28:00;;;;;;;13.93;3.95;;;7.70;97.80;;;;;;6308457;22;20409;-91
2022/01/20 13:30:36;;;;;;;11.55;3.25;;;7.70;98.00;;;;;;6308587;22;20435;-91
2022/01/20 13:33:03;;;;;;;20.45;3.40;;;7.60;97.90;;;;;;6309617;22;20458;-91
2022/01/20 13:35:47;;;;;;;15.30;3.67;;;7.70;97.40;;;;;;6309512;22;20010;-91
2022/01/20 13:38:16;;;;;;;10.52;3.08;;;7.60;96.60;;;;;;6311464;22;19999;-92
2022/01/20 13:40:45;;;;;;;16.55;3.78;;;7.50;97.40;;;;;;6311246;22;20003;-90
2022/01/20 13:46:01;;;;;;;11.48;3.60;;;7.50;96.90;;;;;;6336161;22;20056;-91
2022/01/20 13:48:29;;;;;;;13.82;3.63;;;7.40;97.50;;;;;;6309357;22;20015;-91
2022/01/20 13:50:58;;;;;;;16.75;3.67;;;7.40;96.90;;;;;;6312591;22;20376;-93
2022/01/20 13:53:28;;;;;;;14.70;3.63;;;7.30;97.50;;;;;;6311993;22;20003;-90
2022/01/20 13:55:58;;;;;;;19.83;3.90;;;7.30;97.30;;;;;;6312920;22;20002;-91
2022/01/20 13:58:27;;;;;;;14.30;3.60;;;7.40;97.80;;;;;;6313027;22;20013;-91
2022/01/20 14:00:55;;;;;;;13.95;3.33;;;7.40;98.30;;;;;;6311783;22;19999;-90
2022/01/20 14:03:24;;;;;;;7.40;2.90;;;7.50;96.40;;;;;;6310412;22;20085;-92
2022/01/20 14:05:55;;;;;;;14.95;3.20;;;7.70;93.70;;;;;;6310599;22;20003;-90
2022/01/20 14:08:21;;;;;;;10.25;2.97;;;7.60;93.90;;;;;;6309766;22;20012;-91
2022/01/20 14:10:47;;;;;;;10.05;3.10;;;7.50;92.70;;;;;;6310214;22;20002;-91
2022/01/20 14:13:13;;;;;;;13.63;2.60;;;7.60;94.00;;;;;;6309831;22;20003;-90
2022/01/20 14:15:39;;;;;;;11.95;2.60;;;7.70;93.60;;;;;;6311936;22;20010;-91
2022/01/20 14:18:07;;;;;;;11.45;3.15;;;7.70;94.20;;;;;;6311742;22;20088;-91
2022/01/20 14:20:36;;;;;;;6.68;2.80;;;7.80;92.70;;;;;;6310518;22;20014;-91
2022/01/20 14:23:05;;;;;;;8.57;2.58;;;7.80;91.90;;;;;;6310367;22;20003;-90
2022/01/20 14:25:32;;;;;;;8.05;2.70;;;7.60;91.40;;;;;;6310199;22;20007;-90
2022/01/20 14:27:59;;;;;;;10.77;3.22;;;7.60;92.60;;;;;;6311387;22;20010;-90
2022/01/20 14:30:27;;;;;;;12.73;2.97;;;7.60;92.40;;;;;;6310602;22;20059;-90
2022/01/20 14:32:53;;;;;;;11.35;3.00;;;7.60;93.60;;;;;;6311033;22;20007;-91
2022/01/20 14:35:20;;;;;;;11.57;3.15;;;7.60;94.00;;;;;;6310893;22;20067;-91
2022/01/20 14:37:46;;;;;;;11.68;2.83;;;7.70;94.20;;;;;;6313201;22;20002;-90
2022/01/20 14:40:15;;;;;;;11.52;3.13;;;7.70;94.00;;;;;;6309928;22;20030;-89
2022/01/20 14:42:42;;;;;;;9.45;3.03;;;7.90;94.30;;;;;;6310995;22;20086;-91
2022/01/20 14:45:10;;;;;;;10.93;2.95;;;7.90;94.40;;;;;;6309810;22;20483;-89
2022/01/20 14:47:37;;;;;;;11.50;2.83;;;7.90;92.80;;;;;;6310379;22;20003;-91
2022/01/20 14:50:07;;;;;;;11.15;2.67;;;7.80;92.30;;;;;;6312011;22;20007;-92
2022/01/20 14:52:34;;;;;;;11.73;2.50;;;7.80;92.40;;;;;;6310295;22;19999;-91
2022/01/20 14:55:00;;;;;;;12.38;2.70;;;7.60;92.70;;;;;;6312271;22;20030;-91
2022/01/20 14:57:27;;;;;;;8.73;2.97;;;7.60;93.10;;;;;;6312649;22;20030;-91
2022/01/20 14:59:53;;;;;;;8.30;2.63;;;7.60;93.50;;;;;;6309045;22;20007;-91
2022/01/20 15:02:19;;;;;;;8.50;2.70;;;7.60;93.40;;;;;;6310776;22;20333;-90
2022/01/20 15:04:47;;;;;;;6.30;2.20;;;7.60;93.60;;;;;;6309334;22;20002;-92
2022/01/20 15:07:13;;;;;;;9.07;2.53;;;7.60;93.20;;;;;;6311745;22;20443;-91
2022/01/20 15:09:39;;;;;;;7.78;2.72;;;7.60;93.10;;;;;;6311245;22;20017;-91
2022/01/20 15:12:07;;;;;;;8.13;3.20;;;7.70;93.70;;;;;;6309846;22;20316;-89
2022/01/20 15:14:33;;;;;;;13.27;3.03;;;7.70;93.90;;;;;;6310171;22;20007;-91
2022/01/20 15:17:01;;;;;;;9.75;2.78;;;7.60;93.20;;;;;;6312380;22;20044;-91
2022/01/20 15:19:27;;;;;;;11.82;2.50;;;7.70;93.10;;;;;;6311954;22;20439;-90
2022/01/20 15:21:53;;;;;;;13.50;3.28;;;7.60;93.30;;;;;;6309949;22;20055;-90
2022/01/20 15:24:18;;;;;;;9.85;2.70;;;7.50;92.60;;;;;;6310379;22;20007;-90
2022/01/20 15:26:47;;;;;;;10.05;2.50;;;7.50;93.00;;;;;;6309156;22;20048;-90
2022/01/20 15:29:14;;;;;;;7.80;2.30;;;7.60;92.90;;;;;;6309923;22;20022;-91
2022/01/20 15:31:41;;;;;;;9.80;2.55;;;7.60;93.50;;;;;;6309170;22;20351;-89
2022/01/20 15:34:11;;;;;;;11.98;2.95;;;7.50;93.70;;;;;;6309433;22;20011;-90
2022/01/20 15:36:37;;;;;;;10.68;2.85;;;7.60;93.10;;;;;;6311746;22;20025;-91
2022/01/20 15:39:07;;;;;;;12.18;3.15;;;7.60;93.20;;;;;;6310416;22;19999;-92
2022/01/20 15:41:36;;;;;;;16.10;2.83;;;7.60;93.30;;;;;;6313115;22;20013;-90
2022/01/20 15:44:03;;;;;;;10.43;2.78;;;7.50;93.10;;;;;;6309676;22;20140;-90
2022/01/20 15:46:32;;;;;;;12.32;2.92;;;7.40;93.80;;;;;;6310674;22;20003;-90
2022/01/20 15:48:58;;;;;;;8.32;2.50;;;7.40;94.10;;;;;;6310919;22;20011;-92
2022/01/20 15:51:25;;;;;;;11.05;2.83;;;7.40;94.30;;;;;;6308624;22;19999;-90
2022/01/20 15:53:50;;;;;;;10.75;2.83;;;7.40;94.20;;;;;;6309963;22;20378;-89
2022/01/20 15:56:16;;;;;;;9.85;2.60;;;7.30;93.60;;;;;;6309607;22;19999;-89
2022/01/20 15:58:42;;;;;;;11.27;2.45;;;7.20;93.60;;;;;;6313329;22;20010;-92
2022/01/20 16:01:09;;;;;;;12.43;2.53;;;7.20;92.90;;;;;;6312639;22;20450;-90
2022/01/20 16:03:44;;;;;;;13.88;3.05;;;7.20;92.40;;;;;;6313689;22;20019;-93
2022/01/20 16:06:10;;;;;;;6.28;2.35;;;7.10;92.30;;;;;;6310245;22;20045;-91
2022/01/20 16:08:35;;;;;;;10.80;2.83;;;7.00;91.90;;;;;;6314057;22;20011;-90
2022/01/20 16:14:40;;;;;;;13.13;2.55;;;7.00;91.90;;;;;;6184251;23;20011;-90
2022/01/20 16:17:06;;;;;;;13.50;2.65;;;6.90;91.80;;;;;;6300709;22;20006;-90
2022/01/20 16:19:41;;;;;;;14.63;2.60;;;6.80;92.10;;;;;;6313799;22;20343;-91
2022/01/20 16:29:26;;;;;;;12.35;2.75;;;6.80;92.70;;;;;;5951697;24;20546;-93
2022/01/20 16:38:29;;;;;;;10.50;2.95;;;6.80;93.00;;;;;;5963677;23;20000;-93
2022/01/20 16:41:27;;;;;;;;;;;;;;;;;;;;;
2022/01/20 16:44:05;;;;;;;;;;;;;;;;;;;;;
2022/01/20 16:47:01;;;;;;;;;;;;;;;;;;;;;
2022/01/20 16:49:39;;;;;;;;;;;;;;;;;;;;;
2022/01/20 16:52:05;;;;;;;11.90;2.75;;;6.80;92.50;;;;;;6184550;23;20085;-91
2022/01/20 16:55:02;;;;;;;11.32;3.17;;;6.80;92.30;;;;;;6158230;23;20005;-91
2022/01/20 16:57:36;;;;;;;11.60;2.80;;;6.80;92.60;;;;;;6310517;22;20003;-90
2022/01/20 17:00:31;;;;;;;14.25;2.42;;;6.70;92.10;;;;;;6313276;22;20013;-93
2022/01/20 17:03:14;;;;;;;10.90;2.95;;;6.70;92.00;;;;;;6298506;22;20488;-92
2022/01/20 17:05:41;;;;;;;8.63;2.10;;;6.70;92.00;;;;;;6316459;22;20006;-92
2022/01/20 17:08:14;;;;;;;11.10;2.40;;;6.70;91.90;;;;;;6315221;22;20068;-88
2022/01/20 17:11:23;;;;;;;16.10;3.08;;;6.70;91.80;;;;;;6308708;22;20039;-91
2022/01/20 17:13:48;;;;;;;8.65;2.10;;;6.90;92.20;;;;;;6311642;22;20002;-93
2022/01/20 17:17:03;;;;;;;6.03;2.25;;;6.80;91.30;;;;;;6309387;22;20003;-91
2022/01/20 17:19:39;;;;;;;;;;;;;;;;;;;;;
2022/01/20 17:22:07;;;;;;;9.30;2.38;;;6.80;92.20;;;;;;6337110;22;20078;-90
2022/01/20 17:25:11;;;;;;;5.60;2.07;;;6.70;92.10;;;;;;6310434;22;19999;-92
2022/01/20 17:27:49;;;;;;;7.28;2.33;;;6.80;91.90;;;;;;6310542;22;20279;-91
2022/01/20 17:30:24;;;;;;;9.90;2.22;;;6.80;92.60;;;;;;6307177;22;20014;-94
2022/01/20 17:39:14;;;;;;;10.57;2.15;;;6.70;92.40;;;;;;6208548;23;20475;-93
2022/01/20 17:41:42;;;;;;;8.75;2.47;;;6.60;92.30;;;;;;6309470;22;20003;-90
2022/01/20 17:44:18;;;;;;;9.32;2.50;;;6.50;92.70;;;;;;6313386;22;20007;-92
2022/01/20 17:47:01;;;;;;;;;;;;;;;;;;;;;
2022/01/20 17:50:18;;;;;;;;;;;;;;;;;;;;;
2022/01/20 17:53:37;;;;;;;;;;;;;;;;;;;;;
2022/01/20 17:56:03;;;;;;;8.50;2.47;;;6.80;92.70;;;;;;6288000;22;20086;-91
2022/01/20 17:58:49;;;;;;;8.70;2.33;;;6.40;92.90;;;;;;6307552;22;20090;-91
